Time;durP1;ratioP1;P1;durP2;ratioP2;P2;SDS_P1;SDS_P2;PMS_P1;PMS_P2;Temp;Humidity;BMP_temperature;BMP_pressure;BME280_temperature;BME280_humidity;BME280_pressure;Samples;Min_cycle;Max_cycle;Signal;HPM_P1;HPM_P2
2023/04/26 00:01:40;;;;;;;1.33;1.27;;;;;6.00;95958.00;;;;5073792;28;20199;-63
2023/04/26 00:04:07;;;;;;;1.20;1.20;;;;;6.10;95967.00;;;;5075290;28;20200;-64
2023/04/26 00:06:36;;;;;;;1.20;1.20;;;;;6.00;95958.00;;;;5073708;28;20195;-63
2023/04/26 00:09:05;;;;;;;2.77;1.80;;;;;6.00;95955.00;;;;5075034;28;20689;-63
2023/04/26 00:11:33;;;;;;;1.33;1.33;;;;;6.00;95959.00;;;;5073735;28;20241;-66
2023/04/26 00:14:00;;;;;;;1.27;1.27;;;;;5.90;95957.00;;;;5074848;28;20195;-64
2023/04/26 00:16:27;;;;;;;1.40;1.40;;;;;5.80;95965.00;;;;5074795;28;20199;-64
2023/04/26 00:18:55;;;;;;;0.80;0.80;;;;;5.80;95967.00;;;;5074572;28;20215;-65
2023/04/26 00:21:22;;;;;;;1.70;1.23;;;;;5.80;95971.00;;;;5075157;28;20249;-65
2023/04/26 00:23:51;;;;;;;1.00;1.00;;;;;5.90;95957.00;;;;5074549;28;20203;-67
2023/04/26 00:26:20;;;;;;;1.10;1.10;;;;;5.80;95960.00;;;;5074566;28;20200;-64
2023/04/26 00:28:47;;;;;;;0.90;0.90;;;;;5.80;95961.00;;;;5074701;28;20195;-65
2023/04/26 00:31:15;;;;;;;0.80;0.80;;;;;5.70;95960.00;;;;5074431;28;20199;-65
2023/04/26 00:33:43;;;;;;;1.37;1.30;;;;;5.80;95965.00;;;;5074521;28;20198;-66
2023/04/26 00:36:10;;;;;;;0.83;0.83;;;;;5.80;95970.00;;;;5074646;28;20196;-65
2023/04/26 00:38:37;;;;;;;0.80;0.80;;;;;5.70;95957.00;;;;5074533;28;20248;-65
2023/04/26 00:41:05;;;;;;;0.87;0.87;;;;;5.60;95960.00;;;;5074209;28;20215;-65
2023/04/26 00:43:34;;;;;;;0.80;0.80;;;;;5.70;95955.00;;;;5074293;28;20199;-65
2023/04/26 00:46:01;;;;;;;0.80;0.80;;;;;5.70;95957.00;;;;5074224;28;20213;-65
2023/04/26 00:48:30;;;;;;;1.60;1.50;;;;;5.70;95960.00;;;;5073272;28;20194;-65
2023/04/26 00:50:57;;;;;;;1.13;1.13;;;;;5.70;95959.00;;;;5073999;28;20215;-65
2023/04/26 00:53:26;;;;;;;4.63;1.60;;;;;5.60;95957.00;;;;5074017;28;20191;-65
2023/04/26 00:55:54;;;;;;;2.60;1.63;;;;;5.60;95956.00;;;;5074764;28;20199;-65
2023/04/26 00:58:21;;;;;;;0.80;0.80;;;;;5.70;95961.00;;;;5074185;28;20199;-64
2023/04/26 01:00:50;;;;;;;0.77;0.77;;;;;5.60;95967.00;;;;5073852;28;20225;-65
2023/04/26 01:03:17;;;;;;;0.90;0.90;;;;;5.60;95971.00;;;;5073848;28;20281;-65
2023/04/26 01:05:45;;;;;;;1.07;1.07;;;;;5.60;95964.00;;;;5073781;28;20194;-65
2023/04/26 01:08:16;;;;;;;1.37;1.27;;;;;5.60;95967.00;;;;5074013;28;20201;-65
2023/04/26 01:10:43;;;;;;;0.63;0.63;;;;;5.50;95959.00;;;;5074053;28;20211;-65
2023/04/26 01:13:11;;;;;;;1.27;1.13;;;;;5.60;95959.00;;;;5073760;28;20194;-65
2023/04/26 01:15:42;;;;;;;1.00;1.00;;;;;5.60;95955.00;;;;5073589;28;20203;-65
2023/04/26 01:18:10;;;;;;;0.97;0.97;;;;;5.60;95958.00;;;;5072270;28;20534;-65
2023/04/26 01:20:38;;;;;;;0.77;0.77;;;;;5.50;95959.00;;;;5073329;28;20219;-65
2023/04/26 01:23:07;;;;;;;0.77;0.77;;;;;5.60;95942.00;;;;5073472;28;20281;-65
2023/04/26 01:25:36;;;;;;;0.83;0.83;;;;;5.60;95949.00;;;;5073419;28;20194;-65
2023/04/26 01:28:03;;;;;;;1.00;1.00;;;;;5.60;95949.00;;;;5073908;28;20187;-65
2023/04/26 01:30:31;;;;;;;1.07;1.07;;;;;5.60;95959.00;;;;5073340;28;20271;-65
2023/04/26 01:32:58;;;;;;;0.83;0.83;;;;;5.50;95950.00;;;;5073943;28;20206;-65
2023/04/26 01:35:26;;;;;;;1.10;1.10;;;;;5.60;95946.00;;;;5072048;28;20545;-65
2023/04/26 01:37:53;;;;;;;1.00;1.00;;;;;5.50;95945.00;;;;5071995;28;20257;-65
2023/04/26 01:40:22;;;;;;;0.90;0.90;;;;;5.40;95948.00;;;;5071941;28;20289;-65
2023/04/26 01:42:49;;;;;;;0.80;0.80;;;;;5.40;95938.00;;;;5073478;28;20195;-65
2023/04/26 01:45:17;;;;;;;1.80;1.70;;;;;5.40;95939.00;;;;5073437;28;20214;-65
2023/04/26 01:47:44;;;;;;;1.00;1.00;;;;;5.50;95931.00;;;;5073486;28;20278;-65
2023/04/26 01:50:12;;;;;;;0.70;0.70;;;;;5.40;95943.00;;;;5073326;28;20211;-65
2023/04/26 01:52:39;;;;;;;0.93;0.93;;;;;5.30;95932.00;;;;5073345;28;20198;-64
2023/04/26 01:55:08;;;;;;;1.23;1.17;;;;;5.40;95940.00;;;;5073171;28;20195;-65
2023/04/26 01:57:36;;;;;;;0.80;0.80;;;;;5.30;95948.00;;;;5073390;28;20199;-65
2023/04/26 02:00:05;;;;;;;1.53;1.43;;;;;5.30;95949.00;;;;5072945;28;20584;-65
2023/04/26 02:02:32;;;;;;;1.00;1.00;;;;;5.30;95949.00;;;;5072995;28;20222;-65
2023/04/26 02:05:00;;;;;;;2.07;1.53;;;;;5.30;95950.00;;;;5073350;28;20195;-65
2023/04/26 02:07:27;;;;;;;0.93;0.93;;;;;5.20;95944.00;;;;5073214;28;20200;-65
2023/04/26 02:09:54;;;;;;;0.83;0.83;;;;;5.10;95949.00;;;;5073184;28;20682;-65
2023/04/26 02:12:22;;;;;;;6.03;1.47;;;;;5.10;95959.00;;;;5072968;28;20232;-65
2023/04/26 02:14:50;;;;;;;0.73;0.73;;;;;5.10;95954.00;;;;5071651;28;20264;-65
2023/04/26 02:17:20;;;;;;;1.00;1.00;;;;;5.10;95965.00;;;;5072894;28;20191;-65
2023/04/26 02:19:47;;;;;;;0.70;0.70;;;;;5.20;95949.00;;;;5072803;28;20300;-65
2023/04/26 02:22:14;;;;;;;0.80;0.80;;;;;5.10;95954.00;;;;5072900;28;20249;-65
2023/04/26 02:24:42;;;;;;;1.10;1.10;;;;;5.10;95958.00;;;;5072877;28;20191;-65
2023/04/26 02:27:09;;;;;;;2.20;1.73;;;;;5.00;95957.00;;;;5072789;28;20191;-65
2023/04/26 02:29:37;;;;;;;1.17;1.17;;;;;5.00;95957.00;;;;5072882;28;20253;-66
2023/04/26 02:32:06;;;;;;;1.00;1.00;;;;;5.10;95956.00;;;;5073344;28;20241;-65
2023/04/26 02:34:33;;;;;;;1.27;1.23;;;;;5.00;95952.00;;;;5072754;28;20204;-65
2023/04/26 02:37:02;;;;;;;1.23;1.20;;;;;5.00;95943.00;;;;5072740;28;20250;-65
2023/04/26 02:39:30;;;;;;;0.83;0.83;;;;;5.00;95958.00;;;;5071244;28;20220;-65
2023/04/26 02:41:58;;;;;;;1.13;1.13;;;;;5.10;95954.00;;;;5072882;28;20199;-65
2023/04/26 02:44:28;;;;;;;0.93;0.93;;;;;5.00;95949.00;;;;5072634;28;20203;-64
2023/04/26 02:46:55;;;;;;;0.90;0.90;;;;;5.00;95956.00;;;;5072578;28;20199;-65
2023/04/26 02:49:24;;;;;;;0.90;0.90;;;;;5.00;95956.00;;;;5073296;28;20217;-65
2023/04/26 02:51:52;;;;;;;1.20;1.20;;;;;5.00;95960.00;;;;5072729;28;20196;-65
2023/04/26 02:54:19;;;;;;;0.90;0.90;;;;;5.00;95965.00;;;;5072984;28;20192;-65
2023/04/26 02:56:46;;;;;;;1.00;1.00;;;;;4.90;95959.00;;;;5072072;28;20659;-65
2023/04/26 02:59:14;;;;;;;3.10;2.33;;;;;5.00;95963.00;;;;5072663;28;20705;-65
2023/04/26 03:01:41;;;;;;;0.83;0.83;;;;;5.00;95961.00;;;;5072616;28;20206;-65
2023/04/26 03:04:09;;;;;;;0.90;0.90;;;;;5.00;95961.00;;;;5072405;28;20194;-65
2023/04/26 03:06:37;;;;;;;1.00;1.00;;;;;5.00;95952.00;;;;5072965;28;20195;-65
2023/04/26 03:09:05;;;;;;;1.00;1.00;;;;;5.10;95947.00;;;;5072298;28;20208;-64
2023/04/26 03:11:32;;;;;;;2.20;2.10;;;;;5.00;95958.00;;;;5073750;28;20193;-65
2023/04/26 03:14:00;;;;;;;0.80;0.80;;;;;5.00;95956.00;;;;5075996;28;20200;-65
2023/04/26 03:16:28;;;;;;;1.10;1.10;;;;;4.90;95946.00;;;;5076173;28;20196;-65
2023/04/26 03:18:55;;;;;;;1.13;1.13;;;;;4.90;95937.00;;;;5075790;28;20216;-65
2023/04/26 03:21:23;;;;;;;1.10;1.10;;;;;4.80;95953.00;;;;5075990;28;20215;-65
2023/04/26 03:23:51;;;;;;;0.97;0.97;;;;;4.70;95953.00;;;;5075730;28;20188;-65
2023/04/26 03:26:19;;;;;;;0.90;0.90;;;;;4.60;95959.00;;;;5075718;28;20195;-65
2023/04/26 03:28:46;;;;;;;0.97;0.97;;;;;4.60;95950.00;;;;5074362;28;20191;-64
2023/04/26 03:31:14;;;;;;;1.40;1.40;;;;;4.70;95952.00;;;;5075564;28;20225;-65
2023/04/26 03:33:41;;;;;;;1.13;1.13;;;;;4.70;95947.00;;;;5075645;28;20659;-65
2023/04/26 03:36:09;;;;;;;0.77;0.77;;;;;4.70;95946.00;;;;5075548;28;20231;-65
2023/04/26 03:38:36;;;;;;;1.27;1.20;;;;;4.70;95945.00;;;;5075486;28;20222;-65
2023/04/26 03:41:05;;;;;;;0.93;0.93;;;;;4.60;95941.00;;;;5075503;28;20229;-65
2023/04/26 03:43:32;;;;;;;1.00;1.00;;;;;4.60;95943.00;;;;5075443;28;20196;-65
2023/04/26 03:46:01;;;;;;;0.90;0.90;;;;;4.40;95938.00;;;;5075406;28;20195;-66
2023/04/26 03:48:28;;;;;;;0.90;0.90;;;;;4.40;95944.00;;;;5075309;28;20204;-65
2023/04/26 03:50:56;;;;;;;1.63;1.53;;;;;4.20;95949.00;;;;5075204;28;20221;-65
2023/04/26 03:53:23;;;;;;;1.30;1.30;;;;;4.20;95947.00;;;;5074001;28;20663;-65
2023/04/26 03:55:50;;;;;;;1.27;1.27;;;;;4.20;95950.00;;;;5075171;28;20730;-65
2023/04/26 03:58:19;;;;;;;0.83;0.83;;;;;4.30;95946.00;;;;5075481;28;20647;-65
2023/04/26 04:00:46;;;;;;;2.17;1.00;;;;;4.40;95948.00;;;;5074942;28;20272;-65
2023/04/26 04:03:14;;;;;;;1.83;1.40;;;;;4.30;95953.00;;;;5075029;28;20241;-65
2023/04/26 04:05:42;;;;;;;1.30;1.20;;;;;4.40;95955.00;;;;5074871;28;20693;-65
2023/04/26 04:08:09;;;;;;;0.90;0.90;;;;;4.40;95940.00;;;;5075378;28;20202;-65
2023/04/26 04:10:37;;;;;;;1.00;1.00;;;;;4.50;95946.00;;;;5074733;28;20207;-65
2023/04/26 04:13:04;;;;;;;0.70;0.70;;;;;4.50;95945.00;;;;5075063;28;20194;-65
2023/04/26 04:15:33;;;;;;;2.23;1.20;;;;;4.50;95952.00;;;;5074760;28;20229;-65
2023/04/26 04:18:01;;;;;;;2.37;1.40;;;;;4.50;95946.00;;;;5074723;28;20195;-65
2023/04/26 04:20:28;;;;;;;2.37;1.37;;;;;4.40;95944.00;;;;5073189;28;20225;-65
2023/04/26 04:22:57;;;;;;;1.07;1.07;;;;;4.40;95946.00;;;;5074570;28;20249;-65
2023/04/26 04:25:25;;;;;;;1.63;1.13;;;;;4.20;95958.00;;;;5074466;28;20731;-65
2023/04/26 04:27:52;;;;;;;1.37;1.27;;;;;4.00;95961.00;;;;5074530;28;20718;-65
2023/04/26 04:30:20;;;;;;;1.27;1.27;;;;;4.00;95956.00;;;;5074431;28;20223;-65
2023/04/26 04:32:48;;;;;;;1.10;1.10;;;;;3.90;95957.00;;;;5073073;28;20570;-65
2023/04/26 04:35:16;;;;;;;1.00;1.00;;;;;3.90;95919.00;;;;5074525;28;20546;-65
2023/04/26 04:37:44;;;;;;;3.33;3.03;;;;;4.00;95958.00;;;;5074411;28;20240;-65
2023/04/26 04:40:12;;;;;;;1.10;1.10;;;;;4.10;95961.00;;;;5074185;28;20713;-65
2023/04/26 04:42:39;;;;;;;1.00;1.00;;;;;4.20;95965.00;;;;5074750;28;20200;-65
2023/04/26 04:45:08;;;;;;;1.73;1.63;;;;;4.10;95957.00;;;;5074788;28;20718;-65
2023/04/26 04:47:36;;;;;;;0.87;0.87;;;;;4.20;95953.00;;;;5074940;28;20590;-65
2023/04/26 04:50:07;;;;;;;0.90;0.90;;;;;4.00;95958.00;;;;5074274;28;20282;-65
2023/04/26 04:52:34;;;;;;;1.00;1.00;;;;;4.20;95965.00;;;;5074073;28;20693;-65
2023/04/26 04:55:02;;;;;;;1.20;1.17;;;;;4.20;95960.00;;;;5074270;28;20570;-65
2023/04/26 04:57:30;;;;;;;1.20;1.20;;;;;4.00;95960.00;;;;5073845;28;20208;-65
2023/04/26 04:59:58;;;;;;;0.80;0.80;;;;;4.20;95964.00;;;;5073736;28;20231;-65
2023/04/26 05:02:25;;;;;;;0.80;0.80;;;;;4.30;95972.00;;;;5074187;28;20605;-65
2023/04/26 05:04:54;;;;;;;1.23;1.13;;;;;4.50;95963.00;;;;5073769;28;20203;-65
2023/04/26 05:07:22;;;;;;;1.10;1.10;;;;;4.50;95971.00;;;;5074099;28;20594;-64
2023/04/26 05:09:50;;;;;;;1.47;1.37;;;;;4.60;95981.00;;;;5073956;28;20220;-65
2023/04/26 05:12:17;;;;;;;1.67;1.57;;;;;4.60;95978.00;;;;5073902;28;20200;-65
2023/04/26 05:14:45;;;;;;;3.07;2.77;;;;;4.70;95974.00;;;;5073839;28;20226;-66
2023/04/26 05:17:12;;;;;;;1.40;1.30;;;;;4.50;95977.00;;;;5073775;28;20554;-65
2023/04/26 05:19:40;;;;;;;0.73;0.73;;;;;4.50;95985.00;;;;5073539;28;20213;-65
2023/04/26 05:22:07;;;;;;;1.00;1.00;;;;;4.70;95985.00;;;;5073565;28;20535;-66
2023/04/26 05:24:36;;;;;;;1.43;1.33;;;;;4.90;95985.00;;;;5073444;28;20193;-66
2023/04/26 05:27:04;;;;;;;1.00;1.00;;;;;5.00;95983.00;;;;5073452;28;20196;-66
2023/04/26 05:29:31;;;;;;;1.33;1.00;;;;;5.00;95988.00;;;;5073315;28;20242;-65
2023/04/26 05:31:58;;;;;;;1.03;1.03;;;;;5.00;95992.00;;;;5073417;28;20189;-66
2023/04/26 05:34:26;;;;;;;1.73;1.63;;;;;5.00;95994.00;;;;5073141;28;20579;-66
2023/04/26 05:36:54;;;;;;;1.23;1.13;;;;;4.90;95995.00;;;;5073309;28;20188;-66
2023/04/26 05:39:22;;;;;;;0.90;0.90;;;;;4.90;96004.00;;;;5073271;28;20306;-65
2023/04/26 05:41:51;;;;;;;2.00;1.33;;;;;4.70;96000.00;;;;5073629;28;20548;-65
2023/04/26 05:44:18;;;;;;;0.73;0.73;;;;;4.50;96003.00;;;;5073324;28;20226;-64
2023/04/26 05:46:46;;;;;;;0.90;0.90;;;;;4.60;96006.00;;;;5069664;28;20213;-61
2023/04/26 05:49:13;;;;;;;1.00;1.00;;;;;4.80;96009.00;;;;5068059;28;20213;-59
2023/04/26 05:51:41;;;;;;;1.23;1.23;;;;;4.70;96007.00;;;;5071359;28;20198;-59
2023/04/26 05:54:08;;;;;;;0.93;0.93;;;;;4.70;96002.00;;;;5071414;28;20201;-58
2023/04/26 05:56:36;;;;;;;0.90;0.90;;;;;4.70;96005.00;;;;5069812;28;20282;-61
2023/04/26 05:59:04;;;;;;;0.93;0.93;;;;;4.80;95996.00;;;;5070938;28;20290;-62
2023/04/26 06:01:32;;;;;;;1.13;1.13;;;;;4.80;96002.00;;;;5070554;28;20230;-61
2023/04/26 06:03:59;;;;;;;4.70;1.40;;;;;4.90;96002.00;;;;5070700;28;20749;-62
2023/04/26 06:06:27;;;;;;;1.97;1.20;;;;;5.00;96001.00;;;;5072409;28;20203;-62
2023/04/26 06:08:55;;;;;;;1.20;1.13;;;;;5.00;96008.00;;;;5073258;28;20225;-62
2023/04/26 06:11:23;;;;;;;0.80;0.80;;;;;5.10;96009.00;;;;5073732;28;20674;-63
2023/04/26 06:13:50;;;;;;;1.40;1.40;;;;;5.10;96002.00;;;;5072934;28;20205;-62
2023/04/26 06:16:19;;;;;;;0.70;0.70;;;;;5.50;96014.00;;;;5073155;28;20245;-63
2023/04/26 06:18:46;;;;;;;1.10;1.10;;;;;5.40;96021.00;;;;5073092;28;20617;-63
2023/04/26 06:21:17;;;;;;;3.10;1.47;;;;;5.60;96014.00;;;;5073170;28;20205;-62
2023/04/26 06:23:45;;;;;;;1.50;1.43;;;;;5.70;96015.00;;;;5071566;28;20677;-62
2023/04/26 06:26:12;;;;;;;0.90;0.90;;;;;5.80;96023.00;;;;5071627;28;20201;-62
2023/04/26 06:28:40;;;;;;;1.60;1.50;;;;;5.70;96026.00;;;;5073011;28;20610;-62
2023/04/26 06:31:07;;;;;;;4.07;1.90;;;;;5.90;96020.00;;;;5072709;28;20202;-62
2023/04/26 06:33:36;;;;;;;1.13;1.13;;;;;6.00;96022.00;;;;5071536;28;20195;-62
2023/04/26 06:36:04;;;;;;;1.47;1.37;;;;;6.10;96021.00;;;;5072743;28;20526;-62
2023/04/26 06:38:31;;;;;;;1.57;1.47;;;;;6.20;96009.00;;;;5072748;28;20201;-62
2023/04/26 06:40:58;;;;;;;1.63;1.53;;;;;6.20;96015.00;;;;5072491;28;20230;-62
2023/04/26 06:43:26;;;;;;;1.33;1.33;;;;;6.20;96012.00;;;;5072672;28;20674;-62
2023/04/26 06:45:54;;;;;;;1.13;1.13;;;;;6.30;96017.00;;;;5072651;28;20693;-62
2023/04/26 06:48:21;;;;;;;1.33;1.13;;;;;6.10;96016.00;;;;5076247;28;20198;-62
2023/04/26 06:50:50;;;;;;;1.63;1.53;;;;;6.50;96011.00;;;;5076347;28;20210;-62
2023/04/26 06:53:17;;;;;;;2.47;2.27;;;;;6.60;96012.00;;;;5076948;28;20202;-62
2023/04/26 06:55:45;;;;;;;1.80;1.57;;;;;6.70;96008.00;;;;5076455;28;20187;-62
2023/04/26 06:58:13;;;;;;;2.57;2.33;;;;;6.70;95999.00;;;;5076291;28;20759;-62
2023/04/26 07:00:40;;;;;;;1.30;1.30;;;;;6.70;96005.00;;;;5076369;28;20223;-63
2023/04/26 07:03:08;;;;;;;1.27;1.17;;;;;7.00;96001.00;;;;5076444;28;20190;-62
2023/04/26 07:05:35;;;;;;;1.93;1.83;;;;;7.10;95999.00;;;;5076427;28;20199;-62
2023/04/26 07:08:04;;;;;;;0.90;0.90;;;;;7.20;96000.00;;;;5076086;28;20199;-62
2023/04/26 07:10:31;;;;;;;1.30;1.30;;;;;7.30;95999.00;;;;5076112;28;20272;-62
2023/04/26 07:12:58;;;;;;;1.40;1.40;;;;;7.50;96008.00;;;;5076024;28;20191;-63
2023/04/26 07:15:26;;;;;;;1.80;1.73;;;;;7.70;96002.00;;;;5075968;28;20187;-62
2023/04/26 07:17:53;;;;;;;4.90;4.33;;;;;7.90;95990.00;;;;5074665;28;20196;-62
2023/04/26 07:20:21;;;;;;;1.70;1.60;;;;;8.00;95989.00;;;;5075659;28;20219;-62
2023/04/26 07:22:49;;;;;;;2.10;1.40;;;;;8.00;95975.00;;;;5076093;28;20199;-62
2023/04/26 07:25:18;;;;;;;5.40;2.20;;;;;8.00;95980.00;;;;5076173;28;20210;-62
2023/04/26 07:27:45;;;;;;;1.27;1.23;;;;;8.00;95973.00;;;;5075825;28;20203;-62
2023/04/26 07:30:13;;;;;;;1.07;1.03;;;;;7.80;95984.00;;;;5074307;28;20235;-62
2023/04/26 07:32:40;;;;;;;0.93;0.93;;;;;7.80;95981.00;;;;5075586;28;20192;-62
2023/04/26 07:35:14;;;;;;;1.73;1.63;;;;;8.10;95967.00;;;;5075876;28;20640;-62
2023/04/26 07:37:42;;;;;;;1.20;1.20;;;;;8.20;95986.00;;;;5075864;28;20211;-63
2023/04/26 07:40:12;;;;;;;0.90;0.90;;;;;8.30;95981.00;;;;5074179;28;20664;-62
2023/04/26 07:42:40;;;;;;;0.93;0.93;;;;;8.20;95973.00;;;;5074178;28;20747;-66
2023/04/26 07:45:09;;;;;;;0.77;0.77;;;;;8.50;95973.00;;;;5075676;28;20666;-62
2023/04/26 07:47:37;;;;;;;1.00;1.00;;;;;8.70;95979.00;;;;5075602;28;20187;-62
2023/04/26 07:50:05;;;;;;;0.60;0.60;;;;;8.90;95989.00;;;;5075499;28;20208;-62
2023/04/26 07:52:32;;;;;;;5.73;1.77;;;;;8.90;95984.00;;;;5075230;28;20192;-62
2023/04/26 07:55:00;;;;;;;1.03;1.03;;;;;9.10;95979.00;;;;5075503;28;20603;-62
2023/04/26 07:57:27;;;;;;;1.53;1.40;;;;;9.20;95998.00;;;;5074733;28;20194;-62
2023/04/26 07:59:56;;;;;;;0.97;0.97;;;;;9.40;95991.00;;;;5075304;28;20660;-62
2023/04/26 08:02:23;;;;;;;1.20;1.13;;;;;9.20;95997.00;;;;5075012;28;20215;-62
2023/04/26 08:04:52;;;;;;;1.03;1.03;;;;;9.00;96001.00;;;;5075079;28;20192;-62
2023/04/26 08:07:20;;;;;;;0.70;0.70;;;;;8.80;96006.00;;;;5074741;28;20302;-63
2023/04/26 08:09:48;;;;;;;1.07;1.07;;;;;8.80;96007.00;;;;5075134;28;20225;-60
2023/04/26 08:12:16;;;;;;;1.23;1.23;;;;;8.60;96008.00;;;;5075069;28;20194;-61
2023/04/26 08:14:43;;;;;;;1.33;1.27;;;;;8.10;96000.00;;;;5074809;28;20196;-61
2023/04/26 08:17:12;;;;;;;1.00;1.00;;;;;8.10;96006.00;;;;5075032;28;20566;-61
2023/04/26 08:19:40;;;;;;;0.90;0.90;;;;;8.10;96019.00;;;;5074865;28;20219;-61
2023/04/26 08:22:07;;;;;;;1.00;1.00;;;;;8.20;96013.00;;;;5074665;28;20226;-61
2023/04/26 08:24:35;;;;;;;1.03;1.03;;;;;7.90;96014.00;;;;5074600;28;20219;-61
2023/04/26 08:27:02;;;;;;;1.03;1.03;;;;;7.50;96017.00;;;;5074666;28;20195;-61
2023/04/26 08:29:29;;;;;;;1.63;1.53;;;;;7.50;96017.00;;;;5074313;28;20231;-61
2023/04/26 08:31:57;;;;;;;0.93;0.93;;;;;7.50;96016.00;;;;5074480;28;20266;-61
2023/04/26 08:34:27;;;;;;;0.83;0.83;;;;;7.50;96018.00;;;;5074455;28;20188;-61
2023/04/26 08:36:54;;;;;;;1.10;1.10;;;;;7.70;96012.00;;;;5073248;28;20693;-61
2023/04/26 08:39:21;;;;;;;0.93;0.93;;;;;8.10;96019.00;;;;5074241;28;20702;-61
2023/04/26 08:41:53;;;;;;;0.97;0.97;;;;;8.30;95997.00;;;;5074160;28;20721;-61
2023/04/26 08:44:23;;;;;;;2.73;2.03;;;;;8.90;96004.00;;;;5074378;28;20188;-62
2023/04/26 08:47:01;;;;;;;0.97;0.97;;;;;9.10;96003.00;;;;5074242;28;20206;-62
2023/04/26 08:49:40;;;;;;;0.83;0.83;;;;;9.50;96005.00;;;;5074549;28;20211;-62
2023/04/26 08:52:10;;;;;;;1.40;1.30;;;;;9.70;96009.00;;;;5074505;28;20178;-62
2023/04/26 08:54:39;;;;;;;1.20;1.13;;;;;10.20;96008.00;;;;5074164;28;20217;-62
2023/04/26 08:57:07;;;;;;;1.60;1.50;;;;;10.40;96008.00;;;;5074331;28;20195;-62
2023/04/26 08:59:37;;;;;;;0.80;0.80;;;;;10.80;96009.00;;;;5074295;28;20210;-62
2023/04/26 09:02:06;;;;;;;1.00;1.00;;;;;10.60;96007.00;;;;5073710;28;20215;-62
2023/04/26 09:04:35;;;;;;;5.00;1.67;;;;;10.50;95998.00;;;;5074150;28;20191;-62
2023/04/26 09:07:04;;;;;;;0.60;0.60;;;;;10.30;96002.00;;;;5073781;28;20202;-62
2023/04/26 09:09:36;;;;;;;5.63;1.63;;;;;10.50;96003.00;;;;5073035;28;20264;-62
2023/04/26 09:12:04;;;;;;;0.70;0.70;;;;;10.60;96003.00;;;;5073846;28;20180;-62
2023/04/26 09:14:32;;;;;;;1.63;1.53;;;;;10.50;95998.00;;;;5073982;28;20218;-62
2023/04/26 09:16:59;;;;;;;1.00;1.00;;;;;10.70;95997.00;;;;5073634;28;20201;-62
2023/04/26 09:19:37;;;;;;;0.90;0.90;;;;;10.70;95998.00;;;;5074601;28;20221;-62
2023/04/26 09:22:05;;;;;;;0.60;0.60;;;;;10.70;96000.00;;;;5073825;28;20199;-62
2023/04/26 09:24:49;;;;;;;2.10;1.20;;;;;10.80;96004.00;;;;5073681;28;20198;-62
2023/04/26 09:27:16;;;;;;;0.80;0.80;;;;;10.70;96009.00;;;;5073878;28;20245;-62
2023/04/26 09:29:59;;;;;;;1.30;1.30;;;;;10.90;95996.00;;;;5073552;28;20302;-62
2023/04/26 09:32:28;;;;;;;0.80;0.80;;;;;10.80;95992.00;;;;5073435;28;20218;-63
2023/04/26 09:34:56;;;;;;;1.47;1.37;;;;;11.00;95985.00;;;;5073562;28;20219;-64
2023/04/26 09:37:24;;;;;;;0.97;0.97;;;;;11.10;95987.00;;;;5073524;28;20188;-62
2023/04/26 09:39:51;;;;;;;0.73;0.73;;;;;11.20;95981.00;;;;5073540;28;20218;-63
2023/04/26 09:42:20;;;;;;;1.13;1.00;;;;;11.50;95987.00;;;;5073203;28;20548;-62
2023/04/26 09:44:47;;;;;;;1.17;1.17;;;;;11.80;95980.00;;;;5073260;28;20188;-62
2023/04/26 09:47:15;;;;;;;0.70;0.70;;;;;12.00;95984.00;;;;5073223;28;20272;-62
2023/04/26 09:49:47;;;;;;;1.30;0.87;;;;;12.10;95972.00;;;;5073139;28;20211;-62
2023/04/26 09:52:17;;;;;;;3.40;1.50;;;;;12.30;95985.00;;;;5073420;28;20188;-62
2023/04/26 09:54:47;;;;;;;1.17;1.10;;;;;11.80;95982.00;;;;5073411;28;20226;-62
2023/04/26 09:57:16;;;;;;;0.73;0.73;;;;;11.60;95985.00;;;;5073292;28;20221;-62
2023/04/26 09:59:45;;;;;;;0.80;0.80;;;;;11.90;95981.00;;;;5073224;28;20269;-62
2023/04/26 10:02:17;;;;;;;0.60;0.60;;;;;11.90;95975.00;;;;5073141;28;20245;-62
2023/04/26 10:04:47;;;;;;;1.20;1.20;;;;;11.70;95967.00;;;;5072974;28;20226;-62
2023/04/26 10:07:18;;;;;;;0.87;0.87;;;;;11.80;95986.00;;;;5073061;28;20195;-62
2023/04/26 10:09:46;;;;;;;1.07;1.07;;;;;11.60;95974.00;;;;5072938;28;20307;-62
2023/04/26 10:12:15;;;;;;;0.90;0.90;;;;;11.60;95977.00;;;;5072901;28;20226;-64
2023/04/26 10:14:44;;;;;;;0.90;0.90;;;;;11.70;95972.00;;;;5073201;28;20183;-62
2023/04/26 10:17:12;;;;;;;0.80;0.80;;;;;11.70;95977.00;;;;5072874;28;20278;-62
2023/04/26 10:19:42;;;;;;;1.30;1.30;;;;;11.50;95967.00;;;;5072813;28;20713;-62
2023/04/26 10:22:14;;;;;;;0.80;0.80;;;;;11.00;95982.00;;;;5077052;28;20238;-62
2023/04/26 10:24:44;;;;;;;0.87;0.87;;;;;11.20;95977.00;;;;5076967;28;20179;-62
2023/04/26 10:27:12;;;;;;;0.90;0.90;;;;;11.30;95977.00;;;;5076947;28;20692;-62
2023/04/26 10:30:09;;;;;;;1.03;1.03;;;;;11.60;95980.00;;;;5076869;28;20219;-63
2023/04/26 10:33:13;;;;;;;0.93;0.93;;;;;11.80;95975.00;;;;5076787;28;20221;-63
2023/04/26 10:36:04;;;;;;;6.40;1.37;;;;;12.00;95975.00;;;;5071497;28;20219;-62
2023/04/26 10:38:32;;;;;;;7.03;1.13;;;;;12.10;95975.00;;;;5076966;28;20192;-62
2023/04/26 10:41:29;;;;;;;0.63;0.63;;;;;11.80;95964.00;;;;5076824;28;20211;-63
2023/04/26 10:43:58;;;;;;;0.80;0.80;;;;;12.30;95960.00;;;;5077107;28;20214;-63
2023/04/26 10:46:50;;;;;;;10.17;1.43;;;;;12.30;95965.00;;;;5076846;28;20226;-62
2023/04/26 10:49:21;;;;;;;1.23;1.13;;;;;12.00;95955.00;;;;5077142;28;20646;-62
2023/04/26 10:52:12;;;;;;;1.03;1.03;;;;;12.00;95956.00;;;;5076453;28;20184;-62
2023/04/26 10:54:53;;;;;;;1.37;1.37;;;;;12.40;95970.00;;;;5076689;28;20534;-63
2023/04/26 10:57:23;;;;;;;1.07;1.07;;;;;12.60;95959.00;;;;5076578;28;20566;-62
2023/04/26 11:00:18;;;;;;;0.80;0.80;;;;;12.50;95954.00;;;;5076371;28;20216;-63
2023/04/26 11:02:46;;;;;;;12.27;3.60;;;;;12.30;95962.00;;;;5076091;28;20219;-62
2023/04/26 11:05:34;;;;;;;2.07;1.30;;;;;11.80;95963.00;;;;5076154;28;20288;-63
2023/04/26 11:08:06;;;;;;;0.60;0.60;;;;;11.50;95960.00;;;;5076124;28;20183;-62
2023/04/26 11:10:37;;;;;;;1.20;1.10;;;;;11.30;95965.00;;;;5076065;28;20212;-63
2023/04/26 11:13:06;;;;;;;0.80;0.80;;;;;11.30;95960.00;;;;5076078;28;20647;-62
2023/04/26 11:15:33;;;;;;;1.03;1.03;;;;;11.30;95956.00;;;;5076045;28;20188;-63
2023/04/26 11:18:03;;;;;;;3.97;3.67;;;;;11.40;95946.00;;;;5076464;28;20562;-63
2023/04/26 11:20:31;;;;;;;1.63;1.53;;;;;11.50;95933.00;;;;5075837;28;20219;-62
2023/04/26 11:22:59;;;;;;;1.10;1.10;;;;;11.70;95938.00;;;;5075758;28;20223;-62
2023/04/26 11:25:27;;;;;;;0.90;0.90;;;;;11.90;95940.00;;;;5075806;28;20195;-62
2023/04/26 11:28:03;;;;;;;0.90;0.90;;;;;11.70;95930.00;;;;5075721;28;20658;-62
2023/04/26 11:30:32;;;;;;;0.70;0.70;;;;;11.90;95918.00;;;;5075841;28;20435;-63
2023/04/26 11:33:00;;;;;;;0.80;0.80;;;;;12.80;95913.00;;;;5075141;28;20648;-62
2023/04/26 11:35:28;;;;;;;0.60;0.60;;;;;12.50;95895.00;;;;5075680;28;20192;-62
2023/04/26 11:38:00;;;;;;;1.57;0.90;;;;;12.80;95905.00;;;;5075610;28;20254;-63
2023/04/26 11:40:32;;;;;;;0.70;0.70;;;;;13.20;95913.00;;;;5075599;28;20570;-62
2023/04/26 11:43:04;;;;;;;3.83;1.63;;;;;13.30;95900.00;;;;5075664;28;20207;-62
2023/04/26 11:45:35;;;;;;;0.60;0.60;;;;;14.10;95899.00;;;;5075684;28;20204;-62
2023/04/26 11:48:04;;;;;;;0.63;0.63;;;;;14.40;95895.00;;;;5076004;28;20551;-62
2023/04/26 11:50:33;;;;;;;1.00;1.00;;;;;14.20;95890.00;;;;5074060;28;20227;-63
2023/04/26 11:53:03;;;;;;;1.90;1.43;;;;;13.50;95877.00;;;;5075576;28;20191;-62
2023/04/26 11:55:32;;;;;;;1.00;1.00;;;;;13.60;95887.00;;;;5075198;28;20191;-62
2023/04/26 11:58:00;;;;;;;1.10;1.10;;;;;13.40;95892.00;;;;5075218;28;20192;-62
2023/04/26 12:00:28;;;;;;;1.03;1.03;;;;;14.00;95900.00;;;;5075409;28;20241;-62
2023/04/26 12:02:57;;;;;;;1.90;1.13;;;;;14.10;95899.00;;;;5075038;28;20235;-63
2023/04/26 12:05:26;;;;;;;0.60;0.60;;;;;14.30;95887.00;;;;5075071;28;20202;-63
2023/04/26 12:07:55;;;;;;;1.27;1.27;;;;;14.70;95904.00;;;;5075298;28;20192;-62
2023/04/26 12:10:26;;;;;;;0.80;0.80;;;;;15.10;95899.00;;;;5074974;28;20294;-63
2023/04/26 12:12:56;;;;;;;0.60;0.60;;;;;15.20;95899.00;;;;5075512;28;20204;-63
2023/04/26 12:15:25;;;;;;;0.60;0.60;;;;;15.20;95892.00;;;;5074910;28;20227;-62
2023/04/26 12:17:58;;;;;;;0.87;0.87;;;;;15.50;95885.00;;;;5074841;28;20196;-62
2023/04/26 12:20:33;;;;;;;0.90;0.90;;;;;15.20;95883.00;;;;5075163;28;20568;-62
2023/04/26 12:23:05;;;;;;;0.83;0.83;;;;;15.50;95881.00;;;;5074686;28;20218;-62
2023/04/26 12:25:34;;;;;;;4.43;1.07;;;;;15.70;95884.00;;;;5075017;28;20237;-63
2023/04/26 12:28:03;;;;;;;0.57;0.57;;;;;16.10;95882.00;;;;5075122;28;20187;-62
2023/04/26 12:30:30;;;;;;;0.77;0.77;;;;;16.60;95880.00;;;;5074735;28;20223;-62
2023/04/26 12:32:59;;;;;;;0.67;0.67;;;;;15.90;95883.00;;;;5074907;28;20245;-62